Terminal Aerodrome Forecast
Issued by NWS Cleveland, OH

Home | Current Version | Previous Version | Text Only | Print | Product List | Glossary Off
Versions: 1 2 3 4 5 6 7 8 9 10 11 12 13 14 15 16 17 18 19 20 21 22 23 24 25 26 27

000
FTUS41 KCLE 191726
TAFCAK
TAF
KCAK 191726Z 1918/2018 20007KT 6SM BR OVC006
     FM192200 VRB05KT P6SM BKN100
     FM201100 13008KT 6SM -RA OVC015
     FM201300 16008KT 4SM -RA BR OVC007
      TEMPO 2013/2016 2SM -RA BR OVC003=

USA.gov is the U.S. government's official web portal to all federal, state and local government web resources and services.